createdAt,value
2018-06-05T00:02:10.574Z,16.68
2018-06-05T00:04:37.952Z,16.58
2018-06-05T00:07:06.043Z,16.57
2018-06-05T00:09:33.505Z,16.60
2018-06-05T00:12:00.920Z,16.57
2018-06-05T00:14:28.407Z,16.50
2018-06-05T00:16:55.841Z,16.51
2018-06-05T00:19:23.229Z,16.53
2018-06-05T00:21:50.672Z,16.58
2018-06-05T00:24:18.164Z,16.71
2018-06-05T00:26:45.559Z,16.58
2018-06-05T00:29:12.928Z,16.63
2018-06-05T00:31:40.408Z,16.64
2018-06-05T00:34:07.768Z,16.65
2018-06-05T00:36:35.138Z,16.73
2018-06-05T00:39:02.706Z,16.54
2018-06-05T00:41:30.327Z,16.67
2018-06-05T00:43:57.964Z,16.67
2018-06-05T00:46:25.352Z,16.58
2018-06-05T00:48:52.701Z,16.54
2018-06-05T00:51:31.414Z,16.69
2018-06-05T00:53:58.889Z,16.69
2018-06-05T00:56:26.368Z,16.49
2018-06-05T00:58:53.795Z,16.68
2018-06-05T01:01:21.236Z,16.58
2018-06-05T01:03:48.624Z,16.48
2018-06-05T01:06:15.995Z,16.38
2018-06-05T01:08:43.475Z,16.39
2018-06-05T01:11:10.852Z,16.43
2018-06-05T01:13:38.272Z,16.35
2018-06-05T01:16:05.753Z,16.39
2018-06-05T01:18:33.149Z,16.46
2018-06-05T01:21:00.491Z,16.45
2018-06-05T01:23:27.844Z,16.42
2018-06-05T01:25:55.390Z,16.37
2018-06-05T01:28:22.810Z,16.41
2018-06-05T01:30:50.551Z,16.47
2018-06-05T01:33:17.890Z,16.53
2018-06-05T01:35:45.262Z,16.53
2018-06-05T01:38:12.690Z,16.37
2018-06-05T01:40:40.115Z,16.44
2018-06-05T01:43:07.483Z,16.51
2018-06-05T01:45:34.885Z,16.45
2018-06-05T01:48:02.254Z,16.35
2018-06-05T01:50:29.743Z,16.46
2018-06-05T01:52:57.095Z,16.54
2018-06-05T01:55:24.485Z,16.45
2018-06-05T01:57:51.904Z,16.50
2018-06-05T02:00:19.271Z,16.42
2018-06-05T02:02:46.696Z,16.46
2018-06-05T02:05:14.125Z,16.48
2018-06-05T02:07:41.527Z,16.51
2018-06-05T02:10:08.908Z,16.50
2018-06-05T02:12:36.309Z,16.46
2018-06-05T02:15:04.296Z,16.44
2018-06-05T02:17:31.691Z,16.58
2018-06-05T02:19:59.092Z,16.53
2018-06-05T02:22:26.428Z,16.53
2018-06-05T02:24:54.529Z,16.48
2018-06-05T02:27:21.916Z,16.45
2018-06-05T02:29:49.353Z,16.49
2018-06-05T02:32:16.729Z,16.57
2018-06-05T02:34:44.256Z,16.59
2018-06-05T02:37:11.742Z,16.55
2018-06-05T02:39:39.124Z,16.56
2018-06-05T02:42:06.547Z,16.48
2018-06-05T02:44:33.963Z,16.61
2018-06-05T02:47:01.346Z,16.43
2018-06-05T02:49:29.216Z,16.48
2018-06-05T02:51:56.651Z,16.46
2018-06-05T02:54:24.045Z,16.49
2018-06-05T02:56:51.423Z,16.46
2018-06-05T02:59:18.864Z,16.57
2018-06-05T03:01:46.234Z,16.49
2018-06-05T03:04:14.161Z,16.57
2018-06-05T03:06:41.547Z,16.41
2018-06-05T03:09:08.942Z,16.46
2018-06-05T03:11:36.276Z,16.44
2018-06-05T03:14:03.952Z,16.47
2018-06-05T03:16:31.362Z,16.51
2018-06-05T03:18:59.304Z,16.48
2018-06-05T03:21:26.703Z,16.41
2018-06-05T03:23:54.133Z,16.34
2018-06-05T03:26:21.467Z,16.30
2018-06-05T03:28:49.430Z,16.39
2018-06-05T03:31:16.920Z,16.43
2018-06-05T03:33:44.361Z,16.27
2018-06-05T03:36:11.721Z,16.13
2018-06-05T03:38:39.331Z,16.08
2018-06-05T03:41:06.682Z,16.06
2018-06-05T03:43:34.061Z,16.12
2018-06-05T03:46:01.436Z,16.16
2018-06-05T03:48:28.826Z,16.16
2018-06-05T03:50:56.451Z,16.08
2018-06-05T03:53:24.886Z,16.01
2018-06-05T03:55:52.260Z,15.93
2018-06-05T03:58:19.589Z,15.90
2018-06-05T04:00:47.109Z,15.83
2018-06-05T04:03:15.549Z,15.85
2018-06-05T04:05:43.153Z,16.02
2018-06-05T04:08:10.511Z,15.96
2018-06-05T04:10:37.901Z,15.93
2018-06-05T04:13:05.384Z,15.92
2018-06-05T04:15:32.782Z,15.78
2018-06-05T04:18:00.175Z,15.85
2018-06-05T04:20:27.540Z,15.84
2018-06-05T04:22:54.934Z,15.73
2018-06-05T04:25:22.462Z,15.73
2018-06-05T04:27:49.877Z,15.83
2018-06-05T04:30:17.261Z,15.37
2018-06-05T04:32:44.864Z,15.58
2018-06-05T04:35:12.542Z,15.57
2018-06-05T04:37:39.892Z,15.36
2018-06-05T04:40:07.306Z,15.29
2018-06-05T04:42:34.768Z,15.45
2018-06-05T04:45:02.253Z,15.35
2018-06-05T04:47:29.754Z,15.36
2018-06-05T04:49:57.308Z,15.39
2018-06-05T04:52:24.713Z,15.44
2018-06-05T04:54:52.140Z,15.35
2018-06-05T04:57:19.511Z,15.29
2018-06-05T04:59:46.924Z,15.29
2018-06-05T05:02:14.301Z,15.45
2018-06-05T05:04:41.711Z,15.39
2018-06-05T05:07:09.230Z,15.23
2018-06-05T05:09:36.772Z,15.20
2018-06-05T05:12:04.163Z,15.35
2018-06-05T05:14:31.568Z,15.27
2018-06-05T05:16:59.015Z,15.07
2018-06-05T05:19:26.433Z,15.12
2018-06-05T05:21:54.562Z,15.26
2018-06-05T05:24:21.957Z,15.14
2018-06-05T05:26:49.460Z,15.27
2018-06-05T05:29:17.761Z,15.03
2018-06-05T05:31:45.169Z,15.07
2018-06-05T05:34:12.594Z,15.08
2018-06-05T05:36:39.993Z,15.12
2018-06-05T05:39:07.461Z,15.22
2018-06-05T05:41:34.795Z,15.26
2018-06-05T05:44:02.233Z,15.16
2018-06-05T05:46:29.646Z,15.28
2018-06-05T05:48:57.017Z,15.41
2018-06-05T05:51:24.512Z,15.36
2018-06-05T05:53:52.007Z,15.58
2018-06-05T05:56:19.523Z,15.60
2018-06-05T05:58:47.471Z,15.54
2018-06-05T06:01:14.958Z,15.40
2018-06-05T06:03:42.339Z,15.41
2018-06-05T06:06:09.690Z,15.48
2018-06-05T06:08:37.069Z,15.49
2018-06-05T06:11:04.486Z,15.52
2018-06-05T06:13:31.952Z,15.47
2018-06-05T06:15:59.356Z,15.54
2018-06-05T06:18:26.795Z,15.50
2018-06-05T06:20:54.171Z,15.44
2018-06-05T06:23:21.561Z,15.37
2018-06-05T06:25:48.956Z,15.48
2018-06-05T06:28:16.599Z,15.63
2018-06-05T06:30:43.944Z,15.73
2018-06-05T06:33:11.357Z,15.67
2018-06-05T06:35:38.813Z,15.64
2018-06-05T06:38:06.277Z,15.72
2018-06-05T06:40:33.673Z,15.71
2018-06-05T06:43:01.767Z,15.74
2018-06-05T06:45:29.237Z,15.80
2018-06-05T06:47:56.767Z,15.64
2018-06-05T06:50:24.399Z,15.49
2018-06-05T06:52:51.918Z,15.56
2018-06-05T06:55:19.341Z,15.65
2018-06-05T06:57:47.016Z,15.79
2018-06-05T07:00:14.444Z,15.82
2018-06-05T07:02:41.840Z,15.71
2018-06-05T07:05:09.594Z,15.60
2018-06-05T07:07:37.307Z,15.74
2018-06-05T07:10:04.790Z,15.77
2018-06-05T07:12:32.155Z,15.83
2018-06-05T07:14:59.584Z,15.58
2018-06-05T07:17:26.973Z,15.53
2018-06-05T07:19:54.382Z,15.81
2018-06-05T07:22:21.788Z,15.88
2018-06-05T07:24:50.641Z,15.95
2018-06-05T07:27:18.065Z,15.98
2018-06-05T07:29:45.524Z,16.02
2018-06-05T07:32:12.938Z,16.18
2018-06-05T07:34:40.427Z,16.26
2018-06-05T07:37:09.109Z,16.27
2018-06-05T07:39:36.524Z,16.05
2018-06-05T07:42:04.139Z,16.08
2018-06-05T07:44:31.588Z,16.20
2018-06-05T07:46:58.995Z,16.16
2018-06-05T07:49:26.413Z,16.44
2018-06-05T07:51:54.482Z,16.51
2018-06-05T07:54:22.473Z,16.27
2018-06-05T07:56:49.889Z,16.37
2018-06-05T07:59:17.238Z,16.43
2018-06-05T08:01:44.916Z,16.45
2018-06-05T08:04:12.314Z,16.60
2018-06-05T08:06:39.712Z,16.66
2018-06-05T08:09:08.226Z,16.53
2018-06-05T08:11:35.816Z,16.55
2018-06-05T08:14:03.217Z,16.43
2018-06-05T08:16:30.856Z,16.70
2018-06-05T08:18:58.274Z,16.76
2018-06-05T08:21:25.689Z,16.66
2018-06-05T08:23:53.117Z,16.78
2018-06-05T08:26:20.521Z,16.59
2018-06-05T08:28:48.165Z,16.65
2018-06-05T08:31:16.379Z,16.88
2018-06-05T08:33:43.857Z,17.20
2018-06-05T08:36:11.287Z,17.22
2018-06-05T08:38:38.750Z,17.38
2018-06-05T08:41:06.551Z,17.11
2018-06-05T08:43:33.994Z,17.19
2018-06-05T08:46:01.426Z,17.48
2018-06-05T08:48:29.141Z,17.66
2018-06-05T08:50:56.572Z,17.53
2018-06-05T08:53:24.079Z,17.30
2018-06-05T08:55:51.480Z,17.56
2018-06-05T08:58:18.949Z,17.59
2018-06-05T09:00:46.515Z,17.33
2018-06-05T09:03:13.944Z,17.59
2018-06-05T09:05:41.427Z,17.64
2018-06-05T09:08:08.865Z,17.48
2018-06-05T09:10:36.311Z,17.48
2018-06-05T09:13:04.450Z,17.63
2018-06-05T09:15:31.873Z,17.62
2018-06-05T09:17:59.370Z,17.47
2018-06-05T09:20:27.233Z,17.79
2018-06-05T09:22:54.749Z,17.79
2018-06-05T09:25:22.283Z,18.12
2018-06-05T09:27:49.757Z,18.14
2018-06-05T09:30:17.356Z,18.48
2018-06-05T09:32:44.829Z,18.65
2018-06-05T09:35:12.289Z,18.81
2018-06-05T09:37:39.870Z,18.95
2018-06-05T09:40:07.413Z,18.97
2018-06-05T09:42:34.884Z,18.94
2018-06-05T09:45:02.377Z,19.04
2018-06-05T09:47:30.374Z,18.72
2018-06-05T09:49:58.770Z,19.08
2018-06-05T09:52:26.397Z,19.62
2018-06-05T09:54:54.384Z,19.60
2018-06-05T09:57:21.854Z,19.23
2018-06-05T09:59:49.280Z,19.28
2018-06-05T10:02:16.760Z,19.13
2018-06-05T10:04:44.278Z,19.47
2018-06-05T10:07:11.742Z,19.64
2018-06-05T10:09:39.164Z,19.15
2018-06-05T10:12:06.589Z,19.44
2018-06-05T10:14:34.722Z,19.62
2018-06-05T10:17:02.116Z,19.97
2018-06-05T10:19:29.582Z,19.73
2018-06-05T10:21:56.961Z,20.09
2018-06-05T10:24:24.462Z,19.95
2018-06-05T10:26:52.425Z,19.84
2018-06-05T10:29:19.807Z,20.00
2018-06-05T10:31:47.269Z,19.66
2018-06-05T10:34:14.788Z,19.45
2018-06-05T10:36:42.213Z,19.74
2018-06-05T10:39:09.650Z,19.69
2018-06-05T10:41:37.038Z,19.77
2018-06-05T10:44:04.606Z,19.68
2018-06-05T10:46:32.034Z,19.86
2018-06-05T10:48:59.449Z,19.87
2018-06-05T10:51:26.970Z,19.75
2018-06-05T10:53:54.559Z,19.63
2018-06-05T10:56:21.935Z,19.48
2018-06-05T10:58:49.452Z,19.62
2018-06-05T11:01:16.925Z,19.78
2018-06-05T11:03:44.346Z,20.29
2018-06-05T11:06:12.473Z,21.07
2018-06-05T11:08:39.995Z,21.25
2018-06-05T11:11:07.444Z,20.97
2018-06-05T11:13:34.855Z,21.08
2018-06-05T11:16:02.256Z,21.02
2018-06-05T11:18:30.399Z,21.56
2018-06-05T11:20:57.861Z,21.44
2018-06-05T11:23:25.342Z,21.09
2018-06-05T11:25:52.744Z,21.38
2018-06-05T11:28:20.360Z,23.05
2018-06-05T11:30:48.057Z,23.04
2018-06-05T11:33:15.513Z,23.42
2018-06-05T11:35:42.952Z,23.10
2018-06-05T11:38:10.438Z,22.47
2018-06-05T11:40:37.954Z,22.33
2018-06-05T11:43:05.412Z,22.54
2018-06-05T11:45:32.825Z,23.46
2018-06-05T11:48:00.481Z,24.83
2018-06-05T11:50:27.978Z,24.58
2018-06-05T11:52:55.511Z,23.37
2018-06-05T11:55:22.937Z,23.37
2018-06-05T11:57:50.532Z,24.46
2018-06-05T12:00:18.037Z,24.66
2018-06-05T12:02:45.442Z,25.19
2018-06-05T12:05:12.966Z,25.42
2018-06-05T12:07:41.347Z,25.21
2018-06-05T12:10:08.813Z,26.29
2018-06-05T12:12:36.239Z,24.92
2018-06-05T12:15:03.626Z,25.00
2018-06-05T12:17:31.091Z,26.76
2018-06-05T12:19:58.494Z,27.26
2018-06-05T12:22:26.054Z,25.39
2018-06-05T12:24:53.545Z,25.68
2018-06-05T12:27:20.977Z,24.96
2018-06-05T12:29:49.005Z,24.88
2018-06-05T12:32:16.376Z,25.61
2018-06-05T12:34:43.820Z,25.73
2018-06-05T12:37:11.370Z,27.12
2018-06-05T12:39:38.972Z,27.89
2018-06-05T12:42:06.413Z,27.47
2018-06-05T12:44:34.614Z,28.61
2018-06-05T12:47:02.043Z,28.52
2018-06-05T12:49:29.524Z,27.59
2018-06-05T12:51:57.173Z,28.40
2018-06-05T12:54:24.738Z,27.62
2018-06-05T12:56:52.197Z,27.48
2018-06-05T12:59:19.717Z,27.42
2018-06-05T13:01:47.198Z,27.40
2018-06-05T13:04:14.720Z,28.15
2018-06-05T13:06:42.138Z,26.99
2018-06-05T13:09:09.625Z,26.32
2018-06-05T13:11:37.113Z,27.48
2018-06-05T13:14:04.677Z,26.92
2018-06-05T13:16:32.230Z,27.49
2018-06-05T13:18:59.689Z,26.75
2018-06-05T13:21:27.674Z,28.05
2018-06-05T13:23:55.046Z,28.02
2018-06-05T13:26:22.456Z,29.23
2018-06-05T13:28:49.900Z,28.83
2018-06-05T13:31:17.288Z,28.68
2018-06-05T13:33:44.761Z,27.97
2018-06-05T13:36:12.177Z,26.60
2018-06-05T13:38:39.657Z,27.35
2018-06-05T13:41:07.078Z,27.20
2018-06-05T13:43:34.512Z,27.21
2018-06-05T13:46:01.968Z,27.24
2018-06-05T13:48:29.343Z,26.83
2018-06-05T13:50:57.536Z,27.31
2018-06-05T13:53:31.577Z,27.15
2018-06-05T13:55:58.949Z,28.23
2018-06-05T13:58:27.329Z,28.21
2018-06-05T14:00:54.722Z,27.87
2018-06-05T14:03:22.116Z,27.20
2018-06-05T14:05:49.633Z,26.54
2018-06-05T14:08:17.010Z,27.68
2018-06-05T14:10:44.497Z,28.11
2018-06-05T14:13:11.942Z,27.76
2018-06-05T14:15:39.349Z,28.61
2018-06-05T14:18:06.737Z,28.40
2018-06-05T14:20:34.409Z,27.80
2018-06-05T14:23:01.849Z,28.63
2018-06-05T14:25:29.796Z,29.19
2018-06-05T14:27:57.249Z,29.44
2018-06-05T14:30:24.651Z,29.09
2018-06-05T14:32:52.190Z,27.82
2018-06-05T14:35:19.591Z,28.10
2018-06-05T14:37:47.049Z,29.07
2018-06-05T14:40:14.428Z,28.24
2018-06-05T14:42:41.824Z,26.57
2018-06-05T14:45:09.294Z,27.56
2018-06-05T14:47:36.722Z,28.45
2018-06-05T14:50:04.128Z,28.07
2018-06-05T14:52:31.550Z,28.89
2018-06-05T14:54:58.941Z,28.61
2018-06-05T14:57:26.567Z,28.03
2018-06-05T14:59:54.749Z,27.53
2018-06-05T15:02:22.142Z,27.60
2018-06-05T15:04:49.611Z,26.53
2018-06-05T15:07:17.033Z,26.03
2018-06-05T15:09:45.163Z,25.12
2018-06-05T15:12:12.643Z,27.13
2018-06-05T15:14:40.062Z,25.90
2018-06-05T15:17:08.254Z,26.66
2018-06-05T15:19:36.398Z,25.58
2018-06-05T15:22:03.846Z,25.16
2018-06-05T15:24:31.263Z,26.21
2018-06-05T15:26:58.770Z,26.44
2018-06-05T15:29:26.239Z,26.17
2018-06-05T15:31:53.644Z,26.53
2018-06-05T15:34:21.161Z,26.22
2018-06-05T15:36:48.697Z,25.36
2018-06-05T15:39:16.151Z,24.55
2018-06-05T15:41:43.589Z,24.37
2018-06-05T15:44:11.166Z,24.84
2018-06-05T15:46:38.754Z,26.14
2018-06-05T15:49:06.232Z,25.46
2018-06-05T15:51:33.629Z,26.24
2018-06-05T15:54:01.007Z,25.69
2018-06-05T15:56:28.989Z,25.46
2018-06-05T15:58:56.387Z,25.26
2018-06-05T16:01:24.477Z,24.57
2018-06-05T16:03:51.926Z,24.81
2018-06-05T16:06:19.456Z,24.36
2018-06-05T16:08:46.938Z,23.17
2018-06-05T16:11:14.386Z,23.33
2018-06-05T16:13:42.156Z,22.46
2018-06-05T16:16:09.617Z,22.12
2018-06-05T16:18:37.112Z,22.10
2018-06-05T16:21:04.518Z,22.09
2018-06-05T16:23:32.408Z,21.22
2018-06-05T16:25:59.805Z,21.25
2018-06-05T16:28:27.213Z,21.06
2018-06-05T16:30:54.594Z,20.95
2018-06-05T16:33:22.140Z,20.21
2018-06-05T16:35:49.529Z,20.28
2018-06-05T16:38:16.984Z,20.04
2018-06-05T16:40:44.450Z,20.00
2018-06-05T16:43:11.882Z,19.45
2018-06-05T16:45:39.360Z,19.48
2018-06-05T16:48:06.747Z,19.27
2018-06-05T16:50:34.234Z,19.02
2018-06-05T16:53:01.783Z,18.88
2018-06-05T16:55:29.065Z,18.89
2018-06-05T16:57:56.492Z,18.55
2018-06-05T17:00:24.059Z,18.20
2018-06-05T17:02:51.603Z,18.27
2018-06-05T17:05:19.019Z,18.28
2018-06-05T17:07:46.518Z,18.14
2018-06-05T17:10:14.434Z,18.00
2018-06-05T17:12:42.222Z,17.89
2018-06-05T17:15:09.627Z,17.83
2018-06-05T17:17:37.162Z,17.72
2018-06-05T17:20:04.551Z,17.69
2018-06-05T17:22:32.009Z,17.88
2018-06-05T17:24:59.408Z,17.64
2018-06-05T17:27:26.905Z,17.63
2018-06-05T17:29:54.302Z,17.54
2018-06-05T17:32:21.749Z,17.49
2018-06-05T17:34:49.210Z,17.28
2018-06-05T17:37:16.724Z,17.18
2018-06-05T17:39:45.662Z,17.11
2018-06-05T17:42:13.153Z,17.08
2018-06-05T17:44:40.546Z,17.07
2018-06-05T17:47:07.935Z,16.89
2018-06-05T17:49:35.304Z,16.74
2018-06-05T17:52:02.873Z,16.82
2018-06-05T17:54:30.345Z,16.68
2018-06-05T17:56:57.716Z,16.68
2018-06-05T17:59:25.097Z,16.68
2018-06-05T18:01:52.538Z,16.82
2018-06-05T18:04:19.918Z,16.73
2018-06-05T18:06:47.412Z,16.59
2018-06-05T18:09:14.793Z,16.59
2018-06-05T18:11:42.179Z,16.54
2018-06-05T18:14:09.590Z,16.39
2018-06-05T18:16:37.802Z,16.59
2018-06-05T18:19:05.233Z,16.59
2018-06-05T18:21:32.747Z,16.45
2018-06-05T18:24:00.688Z,16.21
2018-06-05T18:26:28.179Z,16.37
2018-06-05T18:28:55.644Z,16.43
2018-06-05T18:31:23.085Z,16.46
2018-06-05T18:33:50.648Z,16.30
2018-06-05T18:36:18.274Z,16.25
2018-06-05T18:38:45.691Z,16.18
2018-06-05T18:41:13.186Z,15.99
2018-06-05T18:43:40.633Z,15.95
2018-06-05T18:46:08.065Z,16.00
2018-06-05T18:48:35.944Z,15.86
2018-06-05T18:51:05.382Z,15.69
2018-06-05T18:53:32.824Z,15.75
2018-06-05T18:56:00.286Z,15.80
2018-06-05T18:58:27.750Z,15.86
2018-06-05T19:00:55.214Z,15.84
2018-06-05T19:03:22.833Z,15.53
2018-06-05T19:05:50.298Z,15.42
2018-06-05T19:08:17.673Z,15.33
2018-06-05T19:10:45.165Z,15.44
2018-06-05T19:13:12.688Z,15.29
2018-06-05T19:15:40.129Z,15.33
2018-06-05T19:18:07.550Z,15.15
2018-06-05T19:20:34.984Z,15.02
2018-06-05T19:23:02.407Z,15.12
2018-06-05T19:25:30.487Z,15.18
2018-06-05T19:27:57.903Z,15.24
2018-06-05T19:30:25.373Z,15.18
2018-06-05T19:32:52.954Z,15.08
2018-06-05T19:35:20.366Z,15.06
2018-06-05T19:37:47.803Z,14.81
2018-06-05T19:40:15.203Z,14.78
2018-06-05T19:42:43.313Z,14.80
2018-06-05T19:45:10.767Z,14.79
2018-06-05T19:47:38.161Z,14.63
2018-06-05T19:50:05.649Z,14.63
2018-06-05T19:52:33.095Z,14.57
2018-06-05T19:55:00.516Z,14.66
2018-06-05T19:57:27.921Z,14.64
2018-06-05T19:59:55.293Z,14.42
2018-06-05T20:02:22.895Z,14.33
2018-06-05T20:04:50.477Z,14.42
2018-06-05T20:07:17.940Z,14.46
2018-06-05T20:09:45.355Z,14.31
2018-06-05T20:12:12.851Z,14.24
2018-06-05T20:14:40.481Z,14.22
2018-06-05T20:17:07.998Z,14.20
2018-06-05T20:19:35.388Z,14.14
2018-06-05T20:22:02.931Z,14.21
2018-06-05T20:24:30.437Z,14.23
2018-06-05T20:26:57.829Z,14.25
2018-06-05T20:29:25.292Z,14.21
2018-06-05T20:31:52.735Z,14.24
2018-06-05T20:34:20.755Z,14.08
2018-06-05T20:36:48.213Z,13.98
2018-06-05T20:39:15.893Z,14.13
2018-06-05T20:41:43.289Z,14.05
2018-06-05T20:44:10.693Z,13.94
2018-06-05T20:46:38.418Z,14.05
2018-06-05T20:49:05.822Z,14.08
2018-06-05T20:51:33.936Z,14.07
2018-06-05T20:54:01.322Z,13.91
2018-06-05T20:56:28.861Z,14.07
2018-06-05T20:58:56.267Z,14.06
2018-06-05T21:01:23.720Z,14.03
2018-06-05T21:03:51.066Z,14.04
2018-06-05T21:06:18.457Z,14.06
2018-06-05T21:08:45.990Z,14.03
2018-06-05T21:11:13.377Z,14.10
2018-06-05T21:13:40.844Z,13.90
2018-06-05T21:16:08.209Z,13.95
2018-06-05T21:18:35.620Z,14.02
2018-06-05T21:21:02.999Z,13.84
2018-06-05T21:23:30.382Z,13.95
2018-06-05T21:25:57.775Z,13.83
2018-06-05T21:28:25.805Z,13.94
2018-06-05T21:30:53.305Z,13.80
2018-06-05T21:33:20.902Z,13.98
2018-06-05T21:35:48.288Z,13.95
2018-06-05T21:38:15.705Z,13.87
2018-06-05T21:40:43.070Z,13.83
2018-06-05T21:43:10.506Z,13.84
2018-06-05T21:45:37.890Z,13.83
2018-06-05T21:48:05.277Z,13.85
2018-06-05T21:50:32.707Z,13.84
2018-06-05T21:53:00.399Z,13.85
2018-06-05T21:55:27.845Z,13.84
2018-06-05T21:57:55.357Z,13.80
2018-06-05T22:00:23.436Z,13.82
2018-06-05T22:02:50.884Z,13.72
2018-06-05T22:05:18.317Z,13.83
2018-06-05T22:07:45.759Z,13.83
2018-06-05T22:10:13.146Z,13.80
2018-06-05T22:12:40.784Z,13.86
2018-06-05T22:15:08.388Z,13.78
2018-06-05T22:17:35.898Z,13.81
2018-06-05T22:20:03.278Z,13.81
2018-06-05T22:22:30.698Z,13.72
2018-06-05T22:24:58.088Z,13.81
2018-06-05T22:27:25.700Z,13.68
2018-06-05T22:29:53.321Z,13.69
2018-06-05T22:32:20.786Z,13.58
2018-06-05T22:34:48.781Z,13.67
2018-06-05T22:37:16.173Z,13.60
2018-06-05T22:39:43.633Z,13.66
2018-06-05T22:42:11.017Z,13.68
2018-06-05T22:44:38.559Z,13.56
2018-06-05T22:47:06.036Z,13.65
2018-06-05T22:49:33.450Z,13.54
2018-06-05T22:52:01.011Z,13.61
2018-06-05T22:54:28.402Z,13.61
2018-06-05T22:56:55.810Z,13.63
2018-06-05T22:59:23.186Z,13.61
2018-06-05T23:01:50.557Z,13.62
2018-06-05T23:04:18.041Z,13.58
2018-06-05T23:06:45.507Z,13.53
2018-06-05T23:09:12.912Z,13.58
2018-06-05T23:11:40.446Z,13.58
2018-06-05T23:14:07.834Z,13.51
2018-06-05T23:16:35.234Z,13.52
2018-06-05T23:19:02.600Z,13.44
2018-06-05T23:21:30.800Z,13.50
2018-06-05T23:23:58.254Z,13.46
2018-06-05T23:26:25.677Z,13.46
2018-06-05T23:28:53.537Z,13.49
2018-06-05T23:31:20.926Z,13.41
2018-06-05T23:33:48.397Z,13.37
2018-06-05T23:36:15.765Z,13.42
2018-06-05T23:38:43.146Z,13.42
2018-06-05T23:41:10.690Z,13.37
2018-06-05T23:43:38.084Z,13.43
2018-06-05T23:46:05.493Z,13.35
2018-06-05T23:48:32.880Z,13.33
2018-06-05T23:51:00.266Z,13.35
2018-06-05T23:53:27.995Z,13.33
2018-06-05T23:55:55.528Z,13.28
2018-06-05T23:58:22.908Z,13.27
